RJCH

Hakodate Airport

Hakodate, Japan
TAF RJCH 231113Z 2312/2418 04005KT 9999 FEW020 BKN040 BECMG 2400/2403 22005KT BECMG 2406/2409 14005KT
Issued Valid From Valid To
Jul-23 @ 11:13 UTC
(2 hours ago)
Jul-23 @ 12:00 UTC
(2 hours ago)
Jul-24 @ 18:00 UTC
(-1 days ago)
Jul-23 @ 12:00 to Jul-24 @ 00:00
TAF RJCH 231113Z 2312/2418 04005KT 9999 FEW020 BKN040
Wind Visibility Clouds
40° at 5 knots 10,000+ meters
  • Few at 2,000' AGL
  • Broken at 4,000' AGL
Becoming Jul-24 @ 00:00 to Jul-24 @ 06:00
BECMG 2400/2403 22005KT
Wind Visibility Clouds
220° at 5 knots 10,000+ meters
  • Few at 2,000' AGL
  • Broken at 4,000' AGL
Becoming Jul-24 @ 06:00 to Jul-24 @ 18:00
BECMG 2406/2409 14005KT
Wind Visibility Clouds
140° at 5 knots 10,000+ meters
  • Few at 2,000' AGL
  • Broken at 4,000' AGL
TAF RJCH 231113Z 2312/2418 04005KT 9999 FEW020 BKN040 BECMG 2400/2403 22005KT BECMG 2406/2409 14005KT
Issued Jul-23 @ 11:13 UTC
(2 hours ago)
Valid From Jul-23 @ 12:00 UTC
(2 hours ago)
Valid To Jul-24 @ 18:00 UTC
(-1 days ago)
Jul-23 @ 12:00 - Jul-24 @ 00:00
Wind Visibility
40° at 5 knots 10,000+ meters
Clouds
  • Few at 2,000' AGL
  • Broken at 4,000' AGL
Becoming Jul-24 @ 00:00 - Jul-24 @ 06:00
Wind Visibility
220° at 5 knots 10,000+ meters
Clouds
  • Few at 2,000' AGL
  • Broken at 4,000' AGL
Becoming Jul-24 @ 06:00 - Jul-24 @ 18:00
Wind Visibility
140° at 5 knots 10,000+ meters
Clouds
  • Few at 2,000' AGL
  • Broken at 4,000' AGL